createdAt,value
2022-12-05T00:01:36.451Z,82.75
2022-12-05T00:04:06.155Z,82.80
2022-12-05T00:06:34.187Z,82.92
2022-12-05T00:09:01.622Z,82.92
2022-12-05T00:11:31.594Z,82.94
2022-12-05T00:13:59.918Z,82.40
2022-12-05T00:16:28.619Z,82.98
2022-12-05T00:18:55.688Z,83.10
2022-12-05T00:21:25.217Z,83.16
2022-12-05T00:23:53.392Z,83.09
2022-12-05T00:26:20.517Z,83.08
2022-12-05T00:28:47.998Z,82.95
2022-12-05T00:31:16.989Z,83.10
2022-12-05T00:33:44.871Z,83.22
2022-12-05T00:36:17.090Z,83.27
2022-12-05T00:38:44.227Z,83.26
2022-12-05T00:41:14.063Z,83.15
2022-12-05T00:43:41.302Z,83.19
2022-12-05T00:46:12.574Z,83.21
2022-12-05T00:48:39.744Z,83.18
2022-12-05T00:51:28.412Z,83.45
2022-12-05T00:53:57.774Z,83.19
2022-12-05T00:56:25.241Z,83.28
2022-12-05T00:58:53.616Z,83.54
2022-12-05T01:01:23.493Z,83.55
2022-12-05T01:03:52.715Z,83.38
2022-12-05T01:06:19.952Z,83.41
2022-12-05T01:08:46.978Z,83.52
2022-12-05T01:11:16.192Z,83.50
2022-12-05T01:13:43.464Z,83.56
2022-12-05T01:16:15.525Z,83.59
2022-12-05T01:18:42.441Z,83.48
2022-12-05T01:21:09.568Z,83.61
2022-12-05T01:23:36.481Z,83.65
2022-12-05T01:26:07.148Z,83.75
2022-12-05T01:28:34.909Z,83.67
2022-12-05T01:31:19.310Z,83.51
2022-12-05T01:33:46.855Z,83.33
2022-12-05T01:36:13.768Z,83.65
2022-12-05T01:38:41.399Z,83.62
2022-12-05T01:41:10.964Z,83.88
2022-12-05T01:44:08.836Z,83.81
2022-12-05T01:46:38.152Z,83.86
2022-12-05T01:49:16.680Z,83.58
2022-12-05T01:51:49.464Z,83.60
2022-12-05T01:54:17.611Z,83.65
2022-12-05T01:56:50.489Z,83.94
2022-12-05T01:59:18.055Z,83.72
2022-12-05T02:04:14.988Z,83.98
2022-12-05T02:06:41.883Z,83.72
2022-12-05T02:09:08.772Z,83.71
2022-12-05T02:11:35.875Z,83.75
2022-12-05T02:14:39.897Z,83.79
2022-12-05T02:17:31.998Z,83.78
2022-12-05T02:20:35.130Z,83.98
2022-12-05T02:23:28.018Z,83.72
2022-12-05T02:26:21.545Z,83.96
2022-12-05T02:29:13.273Z,84.01
2022-12-05T02:32:04.983Z,83.91
2022-12-05T02:34:54.411Z,83.69
2022-12-05T02:37:27.936Z,83.67
2022-12-05T02:40:03.519Z,83.94
2022-12-05T02:42:40.322Z,83.97
2022-12-05T02:45:12.229Z,83.75
2022-12-05T02:47:42.451Z,83.89
2022-12-05T02:50:09.896Z,83.88
2022-12-05T02:52:36.835Z,84.03
2022-12-05T02:55:03.992Z,83.88
2022-12-05T02:57:30.876Z,84.21
2022-12-05T02:59:58.378Z,84.19
2022-12-05T03:02:31.916Z,84.17
2022-12-05T03:05:02.327Z,84.09
2022-12-05T03:07:29.303Z,84.00
2022-12-05T03:10:01.328Z,84.09
2022-12-05T03:12:34.050Z,84.33
2022-12-05T03:15:02.370Z,84.29
2022-12-05T03:17:35.958Z,84.25
2022-12-05T03:20:20.535Z,84.68
2022-12-05T03:22:54.786Z,84.33
2022-12-05T03:25:24.112Z,84.35
2022-12-05T03:27:54.031Z,84.41
2022-12-05T03:30:22.519Z,84.63
2022-12-05T03:33:03.887Z,84.73
2022-12-05T03:35:47.736Z,84.42
2022-12-05T03:38:26.663Z,84.81
2022-12-05T03:40:56.785Z,84.53
2022-12-05T03:43:48.781Z,84.88
2022-12-05T03:46:40.479Z,84.73
2022-12-05T03:49:19.202Z,84.83
2022-12-05T03:52:06.451Z,84.86
2022-12-05T03:54:39.447Z,84.72
2022-12-05T03:57:17.625Z,84.70
2022-12-05T03:59:46.952Z,84.98
2022-12-05T04:02:26.229Z,85.00
2022-12-05T04:05:06.031Z,85.06
2022-12-05T04:07:33.520Z,84.95
2022-12-05T04:10:04.112Z,85.21
2022-12-05T04:12:31.482Z,85.00
2022-12-05T04:15:06.708Z,85.26
2022-12-05T04:17:40.068Z,85.18
2022-12-05T04:20:28.084Z,85.30
2022-12-05T04:22:55.056Z,85.66
2022-12-05T04:25:42.213Z,85.38
2022-12-05T04:28:36.611Z,85.33
2022-12-05T04:31:07.205Z,85.79
2022-12-05T04:33:50.634Z,85.39
2022-12-05T04:36:33.945Z,85.71
2022-12-05T04:39:10.693Z,85.47
2022-12-05T04:41:44.931Z,85.50
2022-12-05T04:44:13.011Z,85.97
2022-12-05T04:46:40.897Z,85.67
2022-12-05T04:49:09.199Z,85.65
2022-12-05T04:51:37.012Z,85.83
2022-12-05T04:55:02.511Z,86.06
2022-12-05T04:57:36.531Z,85.89
2022-12-05T05:00:04.898Z,85.79
2022-12-05T05:02:38.633Z,86.08
2022-12-05T05:05:09.532Z,86.21
2022-12-05T05:07:48.892Z,86.12
2022-12-05T05:10:17.875Z,85.77
2022-12-05T05:12:44.751Z,85.93
2022-12-05T05:15:11.682Z,85.96
2022-12-05T05:17:38.577Z,86.15
2022-12-05T05:20:24.487Z,86.14
2022-12-05T05:22:52.387Z,86.24
2022-12-05T05:25:20.050Z,86.24
2022-12-05T05:27:54.415Z,86.03
2022-12-05T05:30:22.418Z,86.34
2022-12-05T05:32:49.950Z,86.16
2022-12-05T05:35:17.077Z,86.36
2022-12-05T05:37:44.162Z,86.33
2022-12-05T05:40:12.421Z,86.58
2022-12-05T05:42:46.639Z,86.31
2022-12-05T05:45:14.539Z,86.75
2022-12-05T05:47:42.218Z,86.60
2022-12-05T05:50:10.115Z,86.74
2022-12-05T05:52:37.292Z,86.71
2022-12-05T05:55:06.640Z,86.62
2022-12-05T05:57:33.559Z,86.68
2022-12-05T06:00:00.792Z,86.74
2022-12-05T06:02:32.768Z,86.84
2022-12-05T06:04:59.718Z,86.91
2022-12-05T06:07:26.756Z,87.08
2022-12-05T06:09:53.641Z,86.97
2022-12-05T06:12:20.652Z,86.72
2022-12-05T06:14:48.892Z,86.72
2022-12-05T06:17:15.837Z,86.91
2022-12-05T06:19:42.733Z,86.82
2022-12-05T06:22:09.787Z,86.88
2022-12-05T06:24:36.691Z,87.04
2022-12-05T06:27:03.747Z,86.93
2022-12-05T06:29:33.812Z,87.15
2022-12-05T06:32:01.461Z,87.18
2022-12-05T06:34:28.517Z,86.85
2022-12-05T06:36:55.481Z,86.93
2022-12-05T06:39:22.390Z,87.00
2022-12-05T06:41:49.724Z,87.16
2022-12-05T06:44:16.693Z,86.82
2022-12-05T06:46:43.575Z,87.17
2022-12-05T06:49:11.116Z,87.06
2022-12-05T06:51:38.062Z,87.13
2022-12-05T06:54:05.844Z,87.11
2022-12-05T06:56:32.857Z,87.24
2022-12-05T06:58:59.809Z,87.01
2022-12-05T07:01:39.418Z,86.97
2022-12-05T07:04:20.327Z,87.17
2022-12-05T07:06:51.452Z,86.98
2022-12-05T07:09:46.165Z,87.04
2022-12-05T07:12:16.244Z,87.27
2022-12-05T07:14:49.002Z,87.10
2022-12-05T07:17:20.675Z,87.13
2022-12-05T07:19:52.290Z,87.20
2022-12-05T07:22:21.618Z,86.90
2022-12-05T07:24:50.862Z,87.04
2022-12-05T07:27:23.290Z,87.09
2022-12-05T07:29:53.837Z,86.99
2022-12-05T07:32:21.159Z,87.06
2022-12-05T07:34:53.481Z,87.44
2022-12-05T07:37:22.102Z,87.04
2022-12-05T07:39:49.280Z,87.16
2022-12-05T07:42:16.207Z,87.14
2022-12-05T07:44:43.171Z,87.35
2022-12-05T07:47:10.206Z,87.22
2022-12-05T07:49:37.196Z,86.91
2022-12-05T07:52:04.483Z,87.21
2022-12-05T07:54:31.544Z,87.29
2022-12-05T07:56:58.547Z,87.31
2022-12-05T07:59:25.501Z,87.37
2022-12-05T08:01:52.591Z,87.19
2022-12-05T08:04:20.112Z,87.38
2022-12-05T08:06:47.065Z,87.23
2022-12-05T08:09:14.223Z,87.18
2022-12-05T08:11:41.333Z,87.52
2022-12-05T08:14:08.473Z,87.35
2022-12-05T08:16:35.955Z,87.56
2022-12-05T08:19:06.940Z,87.20
2022-12-05T08:21:34.954Z,87.26
2022-12-05T08:24:05.832Z,86.88
2022-12-05T08:26:34.744Z,87.28
2022-12-05T08:29:06.641Z,87.11
2022-12-05T08:31:38.400Z,87.42
2022-12-05T08:34:05.963Z,87.15
2022-12-05T08:36:32.925Z,87.18
2022-12-05T08:39:06.223Z,87.02
2022-12-05T08:41:33.812Z,87.17
2022-12-05T08:44:05.706Z,87.11
2022-12-05T08:46:35.071Z,87.04
2022-12-05T08:49:04.065Z,87.15
2022-12-05T08:51:33.389Z,87.04
2022-12-05T08:54:03.593Z,87.13
2022-12-05T08:56:30.803Z,86.94
2022-12-05T08:59:04.969Z,87.11
2022-12-05T09:01:36.748Z,87.08
2022-12-05T09:04:05.139Z,87.32
2022-12-05T09:06:34.821Z,87.25
2022-12-05T09:09:09.129Z,87.10
2022-12-05T09:11:46.209Z,87.27
2022-12-05T09:14:33.213Z,87.06
2022-12-05T09:17:01.089Z,87.13
2022-12-05T09:19:28.711Z,87.08
2022-12-05T09:21:57.026Z,87.18
2022-12-05T09:24:25.137Z,87.22
2022-12-05T09:26:52.325Z,86.96
2022-12-05T09:29:20.022Z,87.15
2022-12-05T09:31:48.924Z,87.01
2022-12-05T09:34:18.185Z,87.02
2022-12-05T09:36:45.672Z,87.23
2022-12-05T09:39:12.649Z,87.25
2022-12-05T09:42:06.082Z,87.05
2022-12-05T09:45:10.343Z,87.22
2022-12-05T09:47:42.598Z,87.12
2022-12-05T09:51:00.859Z,86.97
2022-12-05T09:53:35.825Z,87.03
2022-12-05T09:56:41.611Z,87.05
2022-12-05T09:59:16.818Z,86.75
2022-12-05T10:02:18.915Z,86.88
2022-12-05T10:05:09.033Z,86.88
2022-12-05T10:08:25.330Z,87.19
2022-12-05T10:11:09.457Z,87.01
2022-12-05T10:14:13.166Z,86.91
2022-12-05T10:16:49.065Z,86.90
2022-12-05T10:19:34.874Z,86.82
2022-12-05T10:22:25.507Z,87.11
2022-12-05T10:24:57.216Z,86.91
2022-12-05T10:27:40.001Z,86.90
2022-12-05T10:30:21.368Z,86.99
2022-12-05T10:33:09.325Z,86.79
2022-12-05T10:35:39.220Z,87.00
2022-12-05T10:38:25.003Z,87.14
2022-12-05T10:40:54.922Z,86.88
2022-12-05T10:43:31.264Z,86.93
2022-12-05T10:45:59.291Z,86.79
2022-12-05T10:48:27.829Z,86.95
2022-12-05T10:50:57.296Z,86.78
2022-12-05T10:53:40.609Z,86.89
2022-12-05T10:56:44.652Z,86.90
2022-12-05T10:59:18.360Z,86.77
2022-12-05T11:01:56.737Z,86.97
2022-12-05T11:04:30.910Z,86.98
2022-12-05T11:07:04.755Z,86.75
2022-12-05T11:09:34.732Z,86.73
2022-12-05T11:12:14.045Z,86.89
2022-12-05T11:14:46.238Z,86.87
2022-12-05T11:17:27.009Z,86.91
2022-12-05T11:19:54.004Z,86.71
2022-12-05T11:22:23.344Z,86.86
2022-12-05T11:24:50.423Z,86.65
2022-12-05T11:27:17.215Z,86.94
2022-12-05T11:29:59.744Z,86.77
2022-12-05T11:32:30.910Z,86.92
2022-12-05T11:35:24.270Z,86.97
2022-12-05T11:37:56.259Z,86.91
2022-12-05T11:40:44.985Z,87.06
2022-12-05T11:43:40.534Z,86.72
2022-12-05T11:46:42.156Z,86.98
2022-12-05T11:49:43.001Z,87.09
2022-12-05T11:52:37.366Z,87.12
2022-12-05T11:55:33.947Z,87.05
2022-12-05T11:58:35.940Z,87.15
2022-12-05T12:01:40.189Z,86.88
2022-12-05T12:04:27.148Z,87.17
2022-12-05T12:07:25.549Z,87.24
2022-12-05T12:10:16.765Z,87.24
2022-12-05T12:13:18.721Z,87.07
2022-12-05T12:16:22.150Z,87.21
2022-12-05T12:19:11.098Z,87.18
2022-12-05T12:22:27.176Z,87.00
2022-12-05T12:25:38.975Z,87.16
2022-12-05T12:28:42.311Z,87.06
2022-12-05T12:31:23.761Z,86.87
2022-12-05T12:34:17.398Z,87.15
2022-12-05T12:36:55.906Z,87.13
2022-12-05T12:39:44.859Z,87.45
2022-12-05T12:42:47.524Z,87.54
2022-12-05T12:45:39.994Z,87.47
2022-12-05T12:48:41.470Z,87.32
2022-12-05T12:51:13.178Z,87.70
2022-12-05T12:54:01.822Z,87.49
2022-12-05T12:57:14.574Z,87.55
2022-12-05T13:00:07.563Z,87.69
2022-12-05T13:03:10.783Z,87.52
2022-12-05T13:05:54.347Z,87.90
2022-12-05T13:08:31.177Z,87.59
2022-12-05T13:10:59.111Z,87.81
2022-12-05T13:13:47.383Z,87.90
2022-12-05T13:16:34.867Z,87.85
2022-12-05T13:19:03.238Z,87.52
2022-12-05T13:21:30.475Z,87.81
2022-12-05T13:24:03.475Z,87.59
2022-12-05T13:26:32.468Z,87.76
2022-12-05T13:29:04.685Z,87.83
2022-12-05T13:32:04.754Z,88.10
2022-12-05T13:35:11.572Z,87.99
2022-12-05T13:38:05.645Z,87.83
2022-12-05T13:40:57.789Z,88.13
2022-12-05T13:43:29.145Z,87.93
2022-12-05T13:46:11.801Z,87.84
2022-12-05T13:48:42.405Z,88.06
2022-12-05T13:51:12.857Z,87.78
2022-12-05T13:53:57.885Z,88.15
2022-12-05T13:56:28.654Z,87.97
2022-12-05T13:58:58.439Z,88.28
2022-12-05T14:01:26.088Z,88.11
2022-12-05T14:04:02.247Z,88.14
2022-12-05T14:06:41.023Z,88.19
2022-12-05T14:09:20.787Z,88.21
2022-12-05T14:12:12.571Z,88.31
2022-12-05T14:14:58.145Z,88.27
2022-12-05T14:17:32.412Z,88.19
2022-12-05T14:20:11.122Z,88.01
2022-12-05T14:23:11.945Z,88.07
2022-12-05T14:26:04.351Z,87.93
2022-12-05T14:29:03.094Z,87.95
2022-12-05T14:32:14.416Z,87.98
2022-12-05T14:35:06.421Z,88.21
2022-12-05T14:37:34.966Z,87.98
2022-12-05T14:40:31.564Z,88.03
2022-12-05T14:43:10.344Z,87.85
2022-12-05T14:45:40.983Z,88.20
2022-12-05T14:48:13.828Z,88.28
2022-12-05T14:50:45.030Z,88.17
2022-12-05T14:53:15.176Z,88.16
2022-12-05T14:55:44.681Z,88.39
2022-12-05T14:58:36.168Z,88.08
2022-12-05T15:01:18.533Z,88.14
2022-12-05T15:04:13.619Z,88.18
2022-12-05T15:06:55.314Z,88.34
2022-12-05T15:09:38.243Z,88.39
2022-12-05T15:12:20.467Z,88.11
2022-12-05T15:15:05.914Z,88.30
2022-12-05T15:17:52.175Z,88.37
2022-12-05T15:20:40.862Z,88.38
2022-12-05T15:24:00.239Z,88.04
2022-12-05T15:27:02.619Z,88.16
2022-12-05T15:29:32.953Z,88.33
2022-12-05T15:32:02.487Z,88.42
2022-12-05T15:34:44.116Z,87.99
2022-12-05T15:37:16.632Z,88.44
2022-12-05T15:39:59.696Z,88.09
2022-12-05T15:42:37.018Z,88.29
2022-12-05T15:45:15.746Z,88.37
2022-12-05T15:47:45.571Z,88.33
2022-12-05T15:50:22.059Z,88.25
2022-12-05T15:52:58.820Z,88.16
2022-12-05T15:55:47.657Z,88.13
2022-12-05T15:58:50.268Z,88.38
2022-12-05T16:01:21.084Z,88.13
2022-12-05T16:03:55.624Z,88.40
2022-12-05T16:06:31.649Z,88.01
2022-12-05T16:09:00.001Z,88.36
2022-12-05T16:11:27.103Z,88.39
2022-12-05T16:14:01.577Z,88.29
2022-12-05T16:16:33.663Z,88.14
2022-12-05T16:19:16.456Z,88.07
2022-12-05T16:21:59.233Z,88.39
2022-12-05T16:24:32.235Z,88.17
2022-12-05T16:27:04.664Z,88.09
2022-12-05T16:29:34.299Z,88.27
2022-12-05T16:32:04.543Z,88.21
2022-12-05T16:34:34.548Z,88.32
2022-12-05T16:37:01.964Z,88.29
2022-12-05T16:39:29.105Z,88.22
2022-12-05T16:41:56.576Z,88.27
2022-12-05T16:44:48.651Z,88.19
2022-12-05T16:47:28.874Z,88.33
2022-12-05T16:49:55.920Z,88.46
2022-12-05T16:52:23.116Z,88.38
2022-12-05T16:54:50.704Z,88.26
2022-12-05T16:57:17.854Z,88.17
2022-12-05T16:59:48.661Z,88.45
2022-12-05T17:02:19.072Z,88.37
2022-12-05T17:04:47.076Z,88.32
2022-12-05T17:07:14.092Z,88.39
2022-12-05T17:09:41.054Z,88.45
2022-12-05T17:12:24.206Z,88.55
2022-12-05T17:14:51.173Z,88.54
2022-12-05T17:17:19.098Z,88.53
2022-12-05T17:19:46.274Z,88.43
2022-12-05T17:22:15.650Z,88.32
2022-12-05T17:24:42.898Z,88.54
2022-12-05T17:27:13.343Z,88.53
2022-12-05T17:29:40.332Z,88.41
2022-12-05T17:32:07.282Z,88.46
2022-12-05T17:34:34.504Z,88.48
2022-12-05T17:37:02.649Z,88.55
2022-12-05T17:39:29.696Z,88.49
2022-12-05T17:41:56.805Z,88.29
2022-12-05T17:44:24.110Z,88.40
2022-12-05T17:46:51.214Z,88.49
2022-12-05T17:49:18.618Z,88.57
2022-12-05T17:52:20.018Z,88.46
2022-12-05T17:54:32.984Z,88.48
2022-12-05T17:56:59.953Z,88.59
2022-12-05T17:59:26.969Z,88.47
2022-12-05T18:01:53.948Z,88.65
2022-12-05T18:04:23.292Z,88.65
2022-12-05T18:06:51.361Z,88.65
2022-12-05T18:09:18.787Z,88.46
2022-12-05T18:11:45.789Z,88.57
2022-12-05T18:14:12.757Z,88.59
2022-12-05T18:16:39.785Z,88.58
2022-12-05T18:19:08.293Z,88.51
2022-12-05T18:21:36.009Z,88.69
2022-12-05T18:24:03.045Z,88.60
2022-12-05T18:26:30.070Z,88.64
2022-12-05T18:28:58.988Z,88.64
2022-12-05T18:31:26.619Z,88.31
2022-12-05T18:33:53.731Z,88.55
2022-12-05T18:36:21.757Z,88.50
2022-12-05T18:38:54.527Z,88.38
2022-12-05T18:41:23.745Z,88.53
2022-12-05T18:43:51.291Z,88.43
2022-12-05T18:46:18.999Z,88.57
2022-12-05T18:48:47.953Z,88.58
2022-12-05T18:51:22.995Z,88.35
2022-12-05T18:53:52.881Z,88.50
2022-12-05T18:56:31.876Z,88.51
2022-12-05T18:59:04.902Z,88.38
2022-12-05T19:01:34.819Z,88.58
2022-12-05T19:04:03.972Z,88.48
2022-12-05T19:06:33.099Z,88.58
2022-12-05T19:09:03.925Z,88.47
2022-12-05T19:11:31.562Z,88.45
2022-12-05T19:14:01.399Z,88.61
2022-12-05T19:16:30.987Z,88.50
2022-12-05T19:19:00.889Z,88.48
2022-12-05T19:21:30.885Z,88.34
2022-12-05T19:23:58.796Z,88.44
2022-12-05T19:26:26.696Z,88.29
2022-12-05T19:28:53.819Z,88.31
2022-12-05T19:31:23.919Z,88.33
2022-12-05T19:33:54.330Z,88.48
2022-12-05T19:36:24.438Z,88.52
2022-12-05T19:38:53.904Z,88.63
2022-12-05T19:41:31.285Z,88.71
2022-12-05T19:44:01.767Z,88.52
2022-12-05T19:46:31.305Z,88.69
2022-12-05T19:49:02.692Z,88.66
2022-12-05T19:51:31.601Z,88.73
2022-12-05T19:54:00.685Z,88.59
2022-12-05T19:56:30.008Z,88.53
2022-12-05T19:58:58.765Z,88.67
2022-12-05T20:01:33.443Z,88.79
2022-12-05T20:04:03.416Z,88.53
2022-12-05T20:06:37.569Z,88.71
2022-12-05T20:09:05.949Z,88.71
2022-12-05T20:11:33.219Z,88.55
2022-12-05T20:14:01.374Z,88.53
2022-12-05T20:16:29.355Z,88.62
2022-12-05T20:18:59.367Z,88.88
2022-12-05T20:21:29.931Z,88.86
2022-12-05T20:23:58.884Z,88.78
2022-12-05T20:26:29.561Z,88.67
2022-12-05T20:28:58.776Z,88.55
2022-12-05T20:31:31.948Z,88.66
2022-12-05T20:33:58.993Z,88.52
2022-12-05T20:36:29.997Z,88.63
2022-12-05T20:38:59.890Z,88.74
2022-12-05T20:41:27.300Z,88.85
2022-12-05T20:44:03.391Z,88.82
2022-12-05T20:46:31.717Z,88.53
2022-12-05T20:48:59.419Z,88.75
2022-12-05T20:51:32.325Z,88.54
2022-12-05T20:54:01.483Z,88.60
2022-12-05T20:56:31.730Z,88.69
2022-12-05T20:59:01.587Z,88.90
2022-12-05T21:01:31.038Z,88.71
2022-12-05T21:03:58.376Z,88.63
2022-12-05T21:06:31.796Z,88.44
2022-12-05T21:08:59.809Z,88.82
2022-12-05T21:11:29.241Z,88.84
2022-12-05T21:14:00.228Z,88.87
2022-12-05T21:16:27.993Z,88.75
2022-12-05T21:18:56.141Z,88.60
2022-12-05T21:21:25.750Z,88.44
2022-12-05T21:23:58.921Z,89.02
2022-12-05T21:26:31.006Z,88.81
2022-12-05T21:28:59.232Z,88.76
2022-12-05T21:31:32.021Z,88.70
2022-12-05T21:34:02.882Z,88.70
2022-12-05T21:36:32.001Z,88.70
2022-12-05T21:38:59.254Z,88.47
2022-12-05T21:41:26.777Z,88.51
2022-12-05T21:43:55.639Z,88.64
2022-12-05T21:46:26.592Z,88.65
2022-12-05T21:48:54.374Z,88.53
2022-12-05T21:51:22.576Z,88.43
2022-12-05T21:53:50.566Z,88.31
2022-12-05T21:56:22.828Z,88.49
2022-12-05T21:58:50.130Z,88.57
2022-12-05T22:01:28.333Z,88.16
2022-12-05T22:04:00.927Z,88.35
2022-12-05T22:06:30.965Z,88.30
2022-12-05T22:08:57.912Z,88.27
2022-12-05T22:11:25.595Z,88.44
2022-12-05T22:13:52.990Z,88.53
2022-12-05T22:16:20.585Z,88.37
2022-12-05T22:18:48.797Z,88.25
2022-12-05T22:21:19.930Z,88.18
2022-12-05T22:23:47.681Z,88.43
2022-12-05T22:26:24.424Z,88.34
2022-12-05T22:28:53.242Z,88.40
2022-12-05T22:31:21.437Z,88.11
2022-12-05T22:33:48.856Z,88.17
2022-12-05T22:36:17.712Z,88.28
2022-12-05T22:38:47.381Z,88.03
2022-12-05T22:41:23.463Z,88.33
2022-12-05T22:43:56.332Z,88.08
2022-12-05T22:46:25.050Z,88.16
2022-12-05T22:48:52.293Z,88.29
2022-12-05T22:51:20.937Z,88.24
2022-12-05T22:53:51.729Z,88.10
2022-12-05T22:56:20.349Z,88.07
2022-12-05T22:58:47.988Z,88.14
2022-12-05T23:01:26.115Z,88.15
2022-12-05T23:04:05.347Z,88.24
2022-12-05T23:06:34.292Z,88.25
2022-12-05T23:09:02.291Z,88.27
2022-12-05T23:11:30.876Z,88.18
2022-12-05T23:14:02.177Z,88.09
2022-12-05T23:16:32.113Z,88.35
2022-12-05T23:19:02.713Z,88.24
2022-12-05T23:21:36.649Z,88.11
2022-12-05T23:24:07.364Z,88.23
2022-12-05T23:26:38.496Z,88.18
2022-12-05T23:29:08.211Z,88.32
2022-12-05T23:31:35.936Z,88.37
2022-12-05T23:34:04.255Z,88.26
2022-12-05T23:36:32.950Z,88.10
2022-12-05T23:39:00.394Z,88.14
2022-12-05T23:41:27.746Z,88.25
2022-12-05T23:43:54.863Z,88.21
2022-12-05T23:46:25.924Z,88.14
2022-12-05T23:48:53.518Z,88.15
2022-12-05T23:51:30.903Z,88.14
2022-12-05T23:54:01.369Z,88.18
2022-12-05T23:56:31.643Z,88.23
2022-12-05T23:58:58.964Z,88.11
